Time;durP1;ratioP1;P1;durP2;ratioP2;P2;SDS_P1;SDS_P2;PMS_P1;PMS_P2;Temp;Humidity;BMP_temperature;BMP_pressure;BME280_temperature;BME280_humidity;BME280_pressure;Samples;Min_cycle;Max_cycle;Signal;HPM_P1;HPM_P2
2022/03/12 00:01:48;;;;;;;61.50;27.75;;;;;;;-5.60;51.69;102420.89;3444923;79;20995;-67
2022/03/12 00:06:40;;;;;;;56.13;28.83;;;;;;;-5.60;52.14;102420.89;3533744;78;21467;-67
2022/03/12 00:11:34;;;;;;;53.90;27.87;;;;;;;-5.59;52.13;102427.78;3497137;79;20970;-67
2022/03/12 00:16:26;;;;;;;61.60;29.82;;;;;;;-5.61;52.16;102420.37;3400573;80;21021;-67
2022/03/12 00:21:21;;;;;;;60.80;30.90;;;;;;;-5.75;52.24;102422.29;3437987;80;21649;-67
2022/03/12 00:26:15;;;;;;;57.27;28.40;;;;;;;-5.82;52.40;102414.75;3428173;80;21050;-67
2022/03/12 00:31:07;;;;;;;62.17;30.60;;;;;;;-5.83;52.53;102416.77;3429766;80;21022;-67
2022/03/12 00:36:00;;;;;;;54.15;26.62;;;;;;;-5.95;52.54;102401.11;3436936;80;20935;-67
2022/03/12 00:40:53;;;;;;;53.17;26.93;;;;;;;-5.99;52.91;102395.56;3430335;80;21463;-67
2022/03/12 00:45:48;;;;;;;55.92;26.55;;;;;;;-5.99;53.06;102399.36;3400345;80;20946;-67
2022/03/12 00:50:40;;;;;;;52.80;27.20;;;;;;;-6.02;53.17;102397.78;3408206;80;21501;-67
2022/03/12 00:55:32;;;;;;;57.23;25.00;;;;;;;-6.10;53.09;102401.09;3454961;80;20950;-67
2022/03/12 01:00:26;;;;;;;58.70;27.20;;;;;;;-6.09;53.53;102408.86;3400921;80;20932;-67
2022/03/12 01:05:43;;;;;;;54.65;24.98;;;;;;;-6.10;53.43;102394.75;3472607;80;21061;-67
2022/03/12 01:10:35;;;;;;;59.55;25.92;;;;;;;-6.18;53.33;102401.52;3538512;78;20971;-67
2022/03/12 01:15:27;;;;;;;55.80;26.02;;;;;;;-6.23;53.61;102397.19;3522655;78;20934;-67
2022/03/12 01:20:22;;;;;;;63.48;28.17;;;;;;;-6.28;53.56;102392.35;3550630;78;21488;-67
2022/03/12 01:25:17;;;;;;;59.83;27.35;;;;;;;-6.40;53.76;102394.41;3448092;78;20993;-67
2022/03/12 01:30:11;;;;;;;61.80;26.60;;;;;;;-6.43;54.07;102395.36;3581626;78;21497;-67
2022/03/12 01:35:05;;;;;;;62.53;27.65;;;;;;;-6.45;54.13;102395.55;3541409;78;21002;-67
2022/03/12 01:39:58;;;;;;;55.98;27.17;;;;;;;-6.52;54.37;102392.31;3618661;77;21862;-67
2022/03/12 01:44:50;;;;;;;67.17;28.42;;;;;;;-6.52;54.40;102389.79;3511405;78;21002;-67
2022/03/12 01:49:42;;;;;;;56.75;27.25;;;;;;;-6.53;54.50;102382.94;3598908;78;21511;-67
2022/03/12 01:54:37;;;;;;;63.02;26.95;;;;;;;-6.58;54.36;102381.52;3570107;78;20983;-66
2022/03/12 01:59:29;;;;;;;63.10;28.23;;;;;;;-6.65;54.62;102377.77;3492381;78;20961;-67
2022/03/12 02:04:24;;;;;;;69.97;28.52;;;;;;;-6.69;54.51;102378.50;3477662;78;22424;-67
2022/03/12 02:09:17;;;;;;;72.75;31.40;;;;;;;-6.79;54.66;102377.84;3547293;78;20955;-66
2022/03/12 02:14:15;;;;;;;82.92;35.33;;;;;;;-6.86;54.78;102386.73;3600372;77;21754;-67
2022/03/12 02:19:07;;;;;;;64.65;29.90;;;;;;;-6.89;54.97;102377.16;3574172;77;21400;-67
2022/03/12 02:24:03;;;;;;;65.95;30.25;;;;;;;-6.92;55.22;102380.25;3534534;79;20892;-67
2022/03/12 02:28:56;;;;;;;68.83;29.65;;;;;;;-6.93;55.23;102375.02;3525832;79;20963;-67
2022/03/12 02:33:50;;;;;;;68.80;31.48;;;;;;;-6.96;55.36;102375.55;3557376;79;21485;-66
2022/03/12 02:38:42;;;;;;;67.35;32.60;;;;;;;-6.97;55.51;102368.71;3538948;77;20905;-67
2022/03/12 02:43:34;;;;;;;70.05;30.12;;;;;;;-6.99;55.49;102366.38;3578955;77;20980;-67
2022/03/12 02:48:26;;;;;;;68.47;30.90;;;;;;;-7.03;55.69;102367.11;3560643;78;20972;-67
2022/03/12 02:53:18;;;;;;;73.65;33.88;;;;;;;-7.06;55.70;102368.02;3582297;78;21725;-67
2022/03/12 02:58:11;;;;;;;72.95;34.65;;;;;;;-7.11;55.74;102369.66;3454619;79;20981;-67
2022/03/12 03:03:06;;;;;;;79.58;33.55;;;;;;;-7.14;55.81;102364.25;3543735;79;21453;-66
2022/03/12 03:08:04;;;;;;;71.55;32.98;;;;;;;-7.16;55.78;102357.23;3563000;78;20893;-67
2022/03/12 03:12:57;;;;;;;78.12;33.30;;;;;;;-7.24;55.82;102356.70;3469267;80;20959;-67
2022/03/12 03:17:49;;;;;;;75.00;33.25;;;;;;;-7.29;56.12;102355.83;3476611;80;21100;-67
2022/03/12 03:22:41;;;;;;;80.20;36.85;;;;;;;-7.30;56.34;102353.13;3472621;80;20961;-67
2022/03/12 03:27:34;;;;;;;73.87;34.00;;;;;;;-7.38;56.36;102354.78;3434270;83;21971;-67
2022/03/12 03:32:26;;;;;;;85.85;36.55;;;;;;;-7.42;56.30;102348.84;3454038;78;20958;-67
2022/03/12 03:37:19;;;;;;;86.97;38.13;;;;;;;-7.48;56.30;102348.13;3442662;79;20955;-68
2022/03/12 03:42:16;;;;;;;84.70;36.42;;;;;;;-7.57;56.37;102340.38;3410998;80;20931;-67
2022/03/12 03:47:08;;;;;;;89.17;38.02;;;;;;;-7.60;56.47;102345.11;3474415;80;20956;-67
2022/03/12 03:52:00;;;;;;;85.42;36.50;;;;;;;-7.63;56.65;102352.69;3503919;80;21042;-67
2022/03/12 03:56:53;;;;;;;83.92;38.28;;;;;;;-7.60;57.07;102350.49;3512673;80;20934;-67
2022/03/12 04:01:46;;;;;;;89.90;38.25;;;;;;;-7.61;56.81;102348.71;3425283;82;21010;-67
2022/03/12 04:06:39;;;;;;;79.87;35.28;;;;;;;-7.67;56.97;102353.59;3464464;81;21460;-67
2022/03/12 04:11:33;;;;;;;84.62;36.85;;;;;;;-7.74;56.99;102349.81;3482576;78;21002;-67
2022/03/12 04:16:25;;;;;;;73.80;32.60;;;;;;;-7.78;57.08;102359.03;3588409;78;20909;-66
2022/03/12 04:21:22;;;;;;;81.85;35.23;;;;;;;-7.82;56.74;102353.06;3537783;78;20941;-67
2022/03/12 04:26:15;;;;;;;81.00;35.17;;;;;;;-7.89;56.98;102342.97;3571588;78;20957;-67
2022/03/12 04:31:09;;;;;;;76.10;35.28;;;;;;;-7.93;57.17;102342.08;3564879;78;21077;-66
2022/03/12 04:36:04;;;;;;;80.72;36.05;;;;;;;-7.92;57.58;102347.66;3573692;78;20975;-67
2022/03/12 04:40:57;;;;;;;76.33;35.80;;;;;;;-7.92;57.65;102343.87;3529792;78;21473;-67
2022/03/12 04:45:50;;;;;;;89.07;38.58;;;;;;;-7.89;57.65;102340.11;3550452;78;20955;-67
2022/03/12 04:50:42;;;;;;;80.90;36.48;;;;;;;-7.92;57.45;102360.28;3541315;78;20907;-66
2022/03/12 04:55:36;;;;;;;80.72;36.70;;;;;;;-7.91;57.50;102349.47;3501548;78;21784;-67
2022/03/12 05:00:35;;;;;;;80.30;37.63;;;;;;;-7.91;57.57;102343.16;3588704;78;21469;-66
2022/03/12 05:05:26;;;;;;;84.22;37.78;;;;;;;-7.94;57.58;102335.22;3594964;78;20939;-67
2022/03/12 05:10:19;;;;;;;89.20;37.42;;;;;;;-8.02;57.67;102324.60;3559687;78;20970;-67
2022/03/12 05:15:14;;;;;;;85.40;38.28;;;;;;;-8.02;57.99;102315.40;3636271;78;21477;-67
2022/03/12 05:20:07;;;;;;;80.25;37.88;;;;;;;-7.98;58.18;102321.70;3565740;78;21457;-67
2022/03/12 05:24:59;;;;;;;89.28;36.68;;;;;;;-7.92;58.00;102322.41;3580735;78;21348;-67
2022/03/12 05:29:54;;;;;;;83.03;37.65;;;;;;;-8.03;57.84;102327.84;3592131;77;20978;-67
2022/03/12 05:34:46;;;;;;;97.92;38.88;;;;;;;-7.97;58.25;102331.98;3564111;78;20939;-66
2022/03/12 05:39:38;;;;;;;83.85;39.70;;;;;;;-7.87;58.02;102334.87;3583806;78;20927;-67
2022/03/12 05:44:30;;;;;;;88.03;39.70;;;;;;;-7.77;58.28;102339.34;3589287;78;20959;-67
2022/03/12 05:49:22;;;;;;;83.70;38.92;;;;;;;-7.63;58.23;102327.43;3613695;78;20998;-67
2022/03/12 05:54:14;;;;;;;88.15;40.08;;;;;;;-7.56;58.01;102329.56;3577993;77;20938;-67
2022/03/12 05:59:07;;;;;;;88.82;41.80;;;;;;;-7.46;58.28;102334.03;3591592;77;21470;-67
2022/03/12 06:04:04;;;;;;;85.22;42.05;;;;;;;-7.33;58.20;102335.99;3431983;81;21070;-67
2022/03/12 06:08:56;;;;;;;96.28;41.25;;;;;;;-7.23;58.08;102327.81;3394806;80;21908;-67
2022/03/12 06:13:54;;;;;;;97.47;43.87;;;;;;;-7.19;58.06;102321.14;3498474;80;20939;-67
2022/03/12 06:18:43;;;;;;;94.30;45.38;;;;;;;-7.01;58.22;102311.28;3480365;80;20975;-67
2022/03/12 06:23:35;;;;;;;85.03;42.70;;;;;;;-6.63;58.21;102319.38;3490081;80;20948;-67
2022/03/12 06:28:27;;;;;;;87.53;42.50;;;;;;;-6.12;57.99;102302.53;3438825;81;21004;-67
2022/03/12 06:33:22;;;;;;;88.10;42.50;;;;;;;-5.61;57.56;102307.23;3507660;80;21762;-67
2022/03/12 06:38:16;;;;;;;86.28;40.58;;;;;;;-5.10;57.44;102303.70;3473672;80;20971;-67
2022/03/12 06:43:10;;;;;;;83.92;41.30;;;;;;;-4.55;57.07;102320.36;3461101;80;21042;-67
2022/03/12 06:48:03;;;;;;;76.28;39.92;;;;;;;-4.09;56.83;102316.17;3446057;80;20927;-67
2022/03/12 06:52:56;;;;;;;82.45;41.83;;;;;;;-3.52;56.51;102325.67;3404812;81;21679;-67
2022/03/12 06:57:53;;;;;;;79.77;40.43;;;;;;;-2.89;56.12;102339.46;3441841;80;21268;-67
2022/03/12 07:02:45;;;;;;;83.25;43.38;;;;;;;-2.32;55.64;102330.89;3414981;81;20973;-67
2022/03/12 07:07:38;;;;;;;77.90;43.90;;;;;;;-1.71;55.16;102336.98;3469645;80;20960;-67
2022/03/12 07:12:30;;;;;;;78.05;39.75;;;;;;;-1.22;53.99;102322.70;3528905;79;21010;-67
2022/03/12 07:17:22;;;;;;;81.05;42.48;;;;;;;-0.62;53.17;102320.36;3538573;79;21811;-67
2022/03/12 07:22:15;;;;;;;67.78;40.90;;;;;;;-0.13;51.75;102319.48;3570800;79;21855;-67
2022/03/12 07:27:07;;;;;;;69.50;40.45;;;;;;;0.17;51.73;102319.03;3610019;77;20947;-68
2022/03/12 07:31:59;;;;;;;69.30;40.35;;;;;;;0.46;51.01;102326.59;3429793;81;20973;-68
2022/03/12 07:36:54;;;;;;;73.07;40.78;;;;;;;0.71;50.46;102330.80;3431793;80;21472;-67
2022/03/12 07:41:46;;;;;;;68.20;40.25;;;;;;;1.07;50.50;102325.64;3483612;80;20972;-68
2022/03/12 07:46:39;;;;;;;69.65;40.58;;;;;;;1.32;49.69;102323.75;3427427;80;20956;-67
2022/03/12 07:51:32;;;;;;;71.92;43.17;;;;;;;1.78;48.76;102323.55;3470307;82;20991;-67
2022/03/12 07:56:25;;;;;;;75.12;42.80;;;;;;;2.52;47.52;102320.20;3429389;82;21540;-68
2022/03/12 08:01:18;;;;;;;70.20;44.77;;;;;;;4.79;45.64;102306.12;3450964;82;21026;-68
2022/03/12 08:06:12;;;;;;;66.60;43.60;;;;;;;5.88;43.81;102301.84;3441166;80;20995;-66
2022/03/12 08:16:15;;;;;;;59.63;41.20;;;;;;;10.19;39.28;102289.91;3414876;83;20983;-66
2022/03/12 08:21:11;;;;;;;55.85;41.53;;;;;;;10.29;38.00;102279.97;3359076;83;21074;-66
2022/03/12 08:26:03;;;;;;;42.08;33.08;;;;;;;11.73;36.26;102273.61;3387007;83;21046;-67
2022/03/12 08:30:55;;;;;;;46.95;35.58;;;;;;;13.26;34.47;102270.52;3386414;83;21105;-67
2022/03/12 08:35:48;;;;;;;33.20;27.42;;;;;;;15.15;32.02;102274.77;3394621;83;21199;-67
2022/03/12 08:40:41;;;;;;;28.35;24.65;;;;;;;16.69;29.30;102285.69;3373891;83;22105;-66
2022/03/12 08:45:34;;;;;;;32.13;22.55;;;;;;;13.78;31.19;102288.63;3368199;83;21046;-66
2022/03/12 08:50:26;;;;;;;23.95;18.15;;;;;;;12.09;32.52;102294.05;3371450;83;21562;-66
2022/03/12 08:55:18;;;;;;;24.12;17.92;;;;;;;11.13;31.24;102288.65;3329262;83;20983;-66
2022/03/12 09:00:14;;;;;;;22.35;17.27;;;;;;;10.18;31.72;102281.23;3390008;82;21931;-67
2022/03/12 09:05:10;;;;;;;23.83;15.55;;;;;;;9.83;31.69;102279.23;3344354;83;20989;-66
2022/03/12 09:10:05;;;;;;;20.08;14.18;;;;;;;9.74;31.69;102280.13;3372899;82;21015;-67
2022/03/12 09:14:58;;;;;;;25.05;15.53;;;;;;;9.58;31.39;102272.47;3356147;82;21164;-67
2022/03/12 09:19:51;;;;;;;16.15;12.80;;;;;;;9.52;31.69;102273.95;3390700;83;21536;-66
2022/03/12 09:24:43;;;;;;;22.75;14.50;;;;;;;9.48;30.96;102278.95;3347585;83;21473;-68
2022/03/12 09:29:38;;;;;;;9.85;8.30;;;;;;;9.55;31.73;102274.52;3352308;83;21471;-66
2022/03/12 09:34:30;;;;;;;12.10;8.50;;;;;;;9.76;31.23;102274.59;3400771;82;21076;-66
2022/03/12 09:39:23;;;;;;;12.63;8.90;;;;;;;9.83;30.21;102266.67;3373154;83;21031;-66
2022/03/12 09:44:15;;;;;;;10.18;6.97;;;;;;;9.98;31.06;102269.05;3351311;83;21019;-66
2022/03/12 09:49:11;;;;;;;9.33;7.33;;;;;;;12.11;28.82;102240.67;3381168;83;20959;-66
2022/03/12 09:54:01;;;;;;;7.62;5.80;;;;;;;13.16;27.96;102227.58;3369284;83;21012;-66
2022/03/12 09:58:53;;;;;;;10.38;6.20;;;;;;;14.37;26.69;102210.89;3384570;82;20952;-66
2022/03/12 10:03:45;;;;;;;7.42;6.62;;;;;;;17.25;25.19;102207.72;3320588;82;21007;-67
2022/03/12 10:08:38;;;;;;;8.08;6.78;;;;;;;18.11;24.55;102188.98;3385137;83;20942;-67
2022/03/12 10:13:30;;;;;;;10.43;8.83;;;;;;;17.67;24.36;102186.73;3524162;78;21149;-67
2022/03/12 10:18:22;;;;;;;9.75;8.75;;;;;;;18.67;22.90;102182.39;3557949;78;20914;-67
2022/03/12 10:23:15;;;;;;;13.10;11.63;;;;;;;20.26;23.23;102175.07;3534455;79;20936;-67
2022/03/12 10:28:10;;;;;;;14.55;13.08;;;;;;;21.11;22.15;102165.25;3559249;78;20999;-67
2022/03/12 10:33:02;;;;;;;11.68;10.58;;;;;;;21.13;22.55;102166.13;3545039;78;20896;-66
2022/03/12 10:37:54;;;;;;;11.73;10.45;;;;;;;20.98;21.88;102168.81;3500360;79;20978;-67
2022/03/12 10:42:56;;;;;;;12.95;11.80;;;;;;;21.29;21.55;102154.59;3544473;78;20958;-67
2022/03/12 10:47:55;;;;;;;11.68;10.48;;;;;;;21.16;21.89;102148.94;3563547;78;20963;-66
2022/03/12 10:52:50;;;;;;;12.82;11.57;;;;;;;22.03;20.87;102150.16;3523173;78;21103;-67
2022/03/12 10:58:12;;;;;;;14.68;12.03;;;;;;;22.49;20.31;102150.25;3532666;78;20939;-66
2022/03/12 11:03:09;;;;;;;13.75;12.33;;;;;;;22.20;19.86;102150.04;3497636;78;21961;-66
2022/03/12 11:08:29;;;;;;;13.30;11.93;;;;;;;21.68;20.14;102142.05;3524714;78;21460;-67
2022/03/12 11:13:45;;;;;;;13.60;12.20;;;;;;;22.43;19.89;102140.59;3518649;79;21416;-66
2022/03/12 11:18:35;;;;;;;13.10;11.70;;;;;;;22.58;19.92;102130.72;3479246;78;48274;-67
2022/03/12 11:23:32;;;;;;;14.13;12.63;;;;;;;23.11;19.98;102126.59;3547787;78;20948;-67
2022/03/12 11:28:25;;;;;;;12.95;11.57;;;;;;;23.18;19.01;102131.38;3495437;78;21039;-67
2022/03/12 11:33:18;;;;;;;14.98;11.40;;;;;;;22.42;18.71;102132.65;3556334;79;21547;-67
2022/03/12 11:38:20;;;;;;;13.65;11.50;;;;;;;21.88;19.13;102125.15;3530862;79;21195;-67
2022/03/12 11:43:30;;;;;;;14.78;11.57;;;;;;;21.76;19.09;102110.68;3585188;78;21042;-67
2022/03/12 11:48:23;;;;;;;15.88;11.22;;;;;;;21.56;18.83;102102.44;3544740;78;20972;-67
2022/03/12 11:53:18;;;;;;;10.85;9.65;;;;;;;20.99;18.85;102090.81;3546408;79;20990;-67
2022/03/12 11:58:10;;;;;;;11.93;10.05;;;;;;;20.26;19.01;102099.81;3529019;78;20959;-66
2022/03/12 12:03:03;;;;;;;11.97;10.78;;;;;;;19.54;18.93;102083.50;3523096;79;20960;-68
2022/03/12 12:07:55;;;;;;;14.40;11.65;;;;;;;18.79;20.25;102078.84;3524277;79;20931;-67
2022/03/12 12:12:52;;;;;;;14.07;10.75;;;;;;;17.58;20.62;102073.56;3508143;79;21469;-67
2022/03/12 12:17:46;;;;;;;14.30;11.48;;;;;;;15.99;20.98;102076.77;3509932;80;21812;-67
2022/03/12 12:22:39;;;;;;;15.15;12.07;;;;;;;15.12;22.05;102075.59;3532308;79;21445;-67
2022/03/12 12:27:53;;;;;;;12.95;10.18;;;;;;;14.49;22.23;102081.66;3494095;81;21548;-67
2022/03/12 12:32:50;;;;;;;18.10;10.85;;;;;;;13.88;23.22;102070.63;3483545;79;20934;-67
2022/03/12 12:37:58;;;;;;;15.20;11.73;;;;;;;13.52;22.66;102060.09;3445803;79;21006;-66
2022/03/12 12:42:54;;;;;;;14.87;10.40;;;;;;;13.03;22.87;102061.35;3465800;80;21023;-66
2022/03/12 12:47:47;;;;;;;12.93;10.18;;;;;;;12.99;23.36;102055.59;3436744;79;20999;-66
2022/03/12 12:52:43;;;;;;;14.80;10.48;;;;;;;12.90;23.50;102053.17;3444011;79;21308;-68
2022/03/12 12:57:48;;;;;;;11.80;9.23;;;;;;;13.03;23.85;102032.63;3490414;79;20944;-66
2022/03/12 13:02:43;;;;;;;11.95;9.03;;;;;;;13.23;24.04;102018.38;3491793;80;21005;-66
2022/03/12 13:07:35;;;;;;;13.72;9.63;;;;;;;13.02;23.61;102000.43;3473095;81;21949;-66
2022/03/12 13:12:39;;;;;;;12.88;9.10;;;;;;;12.95;24.08;102004.59;3438673;79;21406;-66
2022/03/12 13:17:33;;;;;;;11.65;8.10;;;;;;;12.88;23.74;101994.81;3507812;78;20946;-66
2022/03/12 13:22:29;;;;;;;9.58;8.00;;;;;;;12.86;24.24;101983.45;3492589;79;21074;-66
2022/03/12 13:27:29;;;;;;;14.75;8.33;;;;;;;12.80;23.73;101985.00;3535667;78;21451;-66
2022/03/12 13:32:24;;;;;;;9.18;7.67;;;;;;;12.56;23.27;101985.65;3501047;79;21957;-67
2022/03/12 13:37:18;;;;;;;11.15;7.85;;;;;;;12.23;23.94;101985.95;3529833;79;22039;-66
2022/03/12 13:42:16;;;;;;;12.68;7.58;;;;;;;12.22;23.63;101985.50;3559604;79;20991;-66
2022/03/12 13:47:08;;;;;;;9.85;7.67;;;;;;;12.26;23.97;101987.36;3565203;79;20975;-67
2022/03/12 13:52:01;;;;;;;15.40;7.92;;;;;;;12.22;23.33;101977.68;3496227;79;21584;-66
2022/03/12 13:56:58;;;;;;;12.28;9.35;;;;;;;11.94;23.01;101971.59;3602539;79;20983;-67
2022/03/12 14:01:51;;;;;;;11.25;8.05;;;;;;;11.55;23.07;101970.73;3593256;78;20963;-66
2022/03/12 14:06:44;;;;;;;9.10;6.83;;;;;;;11.52;23.71;101972.84;3568033;78;20970;-66
2022/03/12 14:11:43;;;;;;;10.03;6.33;;;;;;;11.43;23.43;101965.61;3593072;78;21017;-67
2022/03/12 14:16:40;;;;;;;10.93;7.33;;;;;;;11.47;23.81;101960.51;3608554;78;20952;-66
2022/03/12 14:21:42;;;;;;;8.90;6.93;;;;;;;11.61;23.52;101948.39;3588254;78;22560;-67
2022/03/12 14:26:58;;;;;;;10.43;6.50;;;;;;;11.67;23.16;101942.48;3547590;78;20930;-67
2022/03/12 14:31:53;;;;;;;11.00;6.17;;;;;;;11.52;23.14;101931.56;3607801;78;20993;-66
2022/03/12 14:36:45;;;;;;;7.83;5.67;;;;;;;11.34;22.89;101928.84;3512879;79;21253;-66
2022/03/12 14:41:38;;;;;;;7.85;5.60;;;;;;;10.57;22.53;101925.28;3549815;78;21220;-66
2022/03/12 14:46:30;;;;;;;10.70;6.87;;;;;;;10.53;23.25;101928.19;3507767;79;21036;-66
2022/03/12 14:51:22;;;;;;;11.00;6.03;;;;;;;10.77;23.75;101923.42;3554067;78;21669;-66
2022/03/12 14:56:15;;;;;;;9.75;7.00;;;;;;;10.92;23.57;101915.26;3525612;78;20947;-66
2022/03/12 15:01:08;;;;;;;9.40;5.95;;;;;;;11.13;23.70;101913.81;3468934;78;20959;-66
2022/03/12 15:06:04;;;;;;;10.75;6.17;;;;;;;11.21;23.55;101913.63;3534804;78;21390;-65
2022/03/12 15:11:08;;;;;;;8.98;5.10;;;;;;;10.93;22.66;101899.70;3542105;78;21995;-66
2022/03/12 15:16:00;;;;;;;8.00;5.83;;;;;;;10.50;23.14;101894.30;3549445;78;21101;-65
2022/03/12 15:20:52;;;;;;;12.55;6.60;;;;;;;10.20;23.61;101899.22;3593050;78;20970;-65
2022/03/12 15:25:58;;;;;;;10.00;6.20;;;;;;;9.93;24.10;101893.02;3569115;79;20922;-65
2022/03/12 15:30:57;;;;;;;10.25;6.53;;;;;;;9.76;24.94;101899.27;3586535;78;21001;-65
2022/03/12 15:35:49;;;;;;;13.28;6.97;;;;;;;9.45;25.07;101895.46;3594178;78;22003;-65
2022/03/12 15:40:44;;;;;;;10.78;6.78;;;;;;;8.94;25.42;101897.27;3550339;78;21473;-65
2022/03/12 15:45:39;;;;;;;12.73;7.12;;;;;;;8.34;25.58;101895.91;3568935;78;20948;-65
2022/03/12 15:50:32;;;;;;;11.88;6.30;;;;;;;7.90;26.86;101886.98;3529438;78;21214;-65
2022/03/12 15:55:25;;;;;;;21.23;6.70;;;;;;;7.09;26.99;101881.38;3527526;78;20938;-65
2022/03/12 16:00:22;;;;;;;19.82;7.33;;;;;;;7.09;26.99;101881.38;3497626;78;21054;-65
2022/03/12 16:05:16;;;;;;;15.98;7.62;;;;;;;6.72;28.00;101879.52;3492149;78;20986;-65
2022/03/12 16:10:17;;;;;;;27.45;7.50;;;;;;;6.34;28.31;101882.70;3531463;78;20959;-65
2022/03/12 16:15:14;;;;;;;22.45;8.28;;;;;;;5.98;28.95;101879.52;3466988;80;21465;-65
2022/03/12 16:20:11;;;;;;;20.40;7.47;;;;;;;5.63;29.56;101887.45;3496075;81;21021;-65
2022/03/12 16:25:09;;;;;;;27.80;6.97;;;;;;;5.37;29.73;101886.02;3464888;79;20936;-65
2022/03/12 16:30:04;;;;;;;37.73;9.38;;;;;;;5.09;30.31;101875.80;3500025;80;21020;-65
2022/03/12 16:34:57;;;;;;;22.90;8.38;;;;;;;4.80;30.62;101876.69;3459004;80;21017;-65
2022/03/12 16:39:50;;;;;;;23.77;8.90;;;;;;;4.52;31.12;101872.05;3494852;80;22238;-65
2022/03/12 16:44:45;;;;;;;34.55;9.15;;;;;;;4.26;31.73;101872.20;3481860;80;20986;-65
2022/03/12 16:49:36;;;;;;;18.07;6.78;;;;;;;4.10;32.36;101881.53;3472008;80;21013;-64
2022/03/12 16:54:28;;;;;;;18.45;7.05;;;;;;;3.98;32.70;101882.06;3454527;80;21039;-65
2022/03/12 16:59:20;;;;;;;11.60;6.97;;;;;;;3.82;33.14;101877.23;3404381;79;20953;-65
2022/03/12 17:04:13;;;;;;;16.85;7.03;;;;;;;3.67;33.54;101864.70;3481829;80;21046;-65
2022/03/12 17:09:06;;;;;;;19.17;5.92;;;;;;;3.52;33.38;101876.58;3457234;81;20918;-65
2022/03/12 17:13:59;;;;;;;14.58;6.65;;;;;;;3.33;34.15;101874.12;3535376;78;21117;-65
2022/03/12 17:18:51;;;;;;;20.40;8.65;;;;;;;3.13;34.42;101872.83;3570384;79;21042;-65
2022/03/12 17:23:46;;;;;;;22.73;8.28;;;;;;;3.02;34.53;101868.64;3478188;79;20932;-65
2022/03/12 17:28:37;;;;;;;46.53;14.83;;;;;;;2.89;34.83;101863.09;3505076;79;21038;-65
2022/03/12 17:33:29;;;;;;;90.95;22.20;;;;;;;2.77;34.80;101859.70;3519874;78;20965;-65
2022/03/12 17:38:22;;;;;;;35.88;16.20;;;;;;;2.69;34.94;101855.75;3484539;78;21612;-65
2022/03/12 17:43:16;;;;;;;53.00;17.60;;;;;;;2.64;35.13;101866.98;3490391;79;20960;-65
2022/03/12 17:48:09;;;;;;;37.45;15.15;;;;;;;2.56;35.36;101865.19;3527701;79;20952;-65
2022/03/12 17:53:07;;;;;;;51.02;20.92;;;;;;;2.37;35.78;101872.42;3549184;79;21531;-65
2022/03/12 17:57:58;;;;;;;43.20;18.17;;;;;;;2.25;36.16;101868.23;3511983;79;21560;-65
2022/03/12 18:02:52;;;;;;;46.48;18.23;;;;;;;2.09;36.43;101871.41;3392589;83;20972;-65
2022/03/12 18:07:45;;;;;;;45.55;14.73;;;;;;;1.98;36.64;101866.30;3465795;80;20978;-65
2022/03/12 18:12:39;;;;;;;42.62;17.07;;;;;;;1.88;36.81;101868.23;3467215;80;21541;-64
2022/03/12 18:17:35;;;;;;;54.77;23.20;;;;;;;1.73;37.35;101867.53;3448682;80;20993;-64
2022/03/12 18:22:25;;;;;;;73.07;23.67;;;;;;;1.63;37.71;101866.00;3460610;80;22130;-64
2022/03/12 18:27:20;;;;;;;53.30;22.45;;;;;;;1.49;37.85;101855.62;3472408;80;20993;-64
2022/03/12 18:32:16;;;;;;;55.28;25.12;;;;;;;1.40;38.07;101854.09;3504104;80;20971;-65
2022/03/12 18:37:09;;;;;;;57.78;30.05;;;;;;;1.27;38.28;101864.73;3454179;80;21011;-67
2022/03/12 18:42:01;;;;;;;50.17;25.48;;;;;;;1.26;38.46;101863.33;3406024;80;20938;-65
2022/03/12 18:46:54;;;;;;;54.40;25.97;;;;;;;1.28;38.17;101868.17;3456149;80;21724;-66
2022/03/12 18:51:47;;;;;;;51.58;25.82;;;;;;;1.19;38.59;101875.20;3452790;80;21609;-66
2022/03/12 18:56:44;;;;;;;49.80;25.72;;;;;;;1.10;38.67;101868.60;3437462;80;20991;-66
2022/03/12 19:01:33;;;;;;;59.30;29.18;;;;;;;1.04;38.98;101865.61;3384202;82;21003;-66
2022/03/12 19:06:26;;;;;;;73.02;32.88;;;;;;;1.11;39.22;101866.56;3379942;81;21003;-66
2022/03/12 19:11:18;;;;;;;69.58;36.88;;;;;;;1.07;39.61;101866.20;3407254;82;21209;-67
2022/03/12 19:16:12;;;;;;;89.25;41.77;;;;;;;1.03;39.69;101870.21;3441192;81;21084;-66
2022/03/12 19:21:04;;;;;;;96.63;42.17;;;;;;;0.98;39.90;101870.66;3326988;84;21031;-66
2022/03/12 19:25:58;;;;;;;91.92;41.77;;;;;;;0.91;40.18;101868.02;3425808;82;20969;-66
2022/03/12 19:30:50;;;;;;;83.65;39.18;;;;;;;0.88;40.40;101864.86;3451593;81;20948;-69
2022/03/12 19:35:43;;;;;;;93.07;39.03;;;;;;;0.81;40.46;101860.45;3406858;81;21442;-67
2022/03/12 19:40:38;;;;;;;69.12;34.48;;;;;;;0.71;40.89;101853.34;3448368;81;21600;-67
2022/03/12 19:45:34;;;;;;;72.82;38.67;;;;;;;0.64;41.13;101849.81;3426858;82;20956;-67
2022/03/12 19:50:26;;;;;;;85.05;42.13;;;;;;;0.57;41.65;101845.02;3399534;81;21572;-67
2022/03/12 19:55:19;;;;;;;80.00;40.30;;;;;;;0.53;41.34;101850.69;3410277;81;21019;-67
2022/03/12 20:00:13;;;;;;;77.37;39.00;;;;;;;0.53;41.79;101845.57;3451640;81;21735;-67
2022/03/12 20:05:06;;;;;;;83.05;39.53;;;;;;;0.44;42.30;101850.00;3431847;82;21509;-67
2022/03/12 20:09:59;;;;;;;80.72;41.88;;;;;;;0.27;42.59;101854.73;3423199;82;21074;-67
2022/03/12 20:14:53;;;;;;;93.30;43.90;;;;;;;0.32;42.89;101855.98;3391102;82;21701;-67
2022/03/12 20:19:47;;;;;;;93.67;42.30;;;;;;;0.41;42.88;101858.70;3476167;80;21186;-67
2022/03/12 20:24:39;;;;;;;74.45;39.25;;;;;;;0.46;42.94;101864.67;3373960;80;20948;-66
2022/03/12 20:29:32;;;;;;;91.92;44.50;;;;;;;0.53;44.04;101859.64;3393248;82;21108;-66
2022/03/12 20:34:26;;;;;;;108.75;48.08;;;;;;;0.50;43.69;101860.31;3462727;80;21022;-66
2022/03/12 20:39:18;;;;;;;106.20;50.90;;;;;;;0.55;43.46;101860.65;3432817;81;21530;-66
2022/03/12 20:44:11;;;;;;;98.20;53.55;;;;;;;0.65;43.64;101857.13;3438619;80;21534;-66
2022/03/12 20:49:04;;;;;;;107.43;51.28;;;;;;;0.71;43.51;101854.63;3397482;80;21744;-66
2022/03/12 20:53:56;;;;;;;124.85;54.63;;;;;;;0.76;43.40;101844.73;3433173;80;21127;-66
2022/03/12 20:58:49;;;;;;;117.57;59.83;;;;;;;0.80;43.47;101843.30;3437326;80;21026;-66
2022/03/12 21:03:41;;;;;;;129.60;70.45;;;;;;;0.78;43.46;101843.17;3420283;80;20894;-66
2022/03/12 21:08:33;;;;;;;125.25;66.77;;;;;;;0.82;43.87;101838.78;3403708;80;20930;-67
2022/03/12 21:13:25;;;;;;;105.30;56.28;;;;;;;0.71;43.75;101831.58;3422787;81;21018;-67
2022/03/12 21:18:18;;;;;;;99.45;55.50;;;;;;;0.68;44.34;101827.90;3384492;82;21057;-67
2022/03/12 21:23:10;;;;;;;106.60;58.55;;;;;;;0.66;44.50;101830.37;3383764;81;21011;-67
2022/03/12 21:28:07;;;;;;;110.15;59.03;;;;;;;0.67;44.42;101830.86;3382213;82;21126;-67
2022/03/12 21:33:00;;;;;;;100.15;53.78;;;;;;;0.74;44.41;101835.66;3425881;81;20956;-67
2022/03/12 21:37:57;;;;;;;99.00;50.15;;;;;;;0.73;44.31;101835.17;3381723;81;20978;-67
2022/03/12 21:42:51;;;;;;;117.07;63.20;;;;;;;0.74;44.84;101836.94;3491763;80;21976;-67
2022/03/12 21:47:44;;;;;;;92.08;50.70;;;;;;;0.72;45.05;101832.09;3444996;80;20975;-67
2022/03/12 21:52:38;;;;;;;124.70;59.80;;;;;;;0.72;44.96;101829.53;3391763;81;20999;-66
2022/03/12 21:57:30;;;;;;;120.55;60.33;;;;;;;0.66;45.26;101822.70;3436386;80;21481;-67
2022/03/12 22:02:23;;;;;;;111.20;56.60;;;;;;;0.57;45.26;101819.42;3456975;81;21583;-67
2022/03/12 22:07:15;;;;;;;108.05;56.00;;;;;;;0.49;45.32;101816.70;3469722;80;20999;-67
2022/03/12 22:12:07;;;;;;;103.65;53.02;;;;;;;0.36;45.40;101818.33;3452012;80;21191;-67
2022/03/12 22:17:00;;;;;;;99.55;54.63;;;;;;;0.19;45.71;101819.98;3395925;81;21082;-66
2022/03/12 22:21:52;;;;;;;98.78;53.28;;;;;;;0.07;46.13;101816.48;3375726;82;21053;-66
2022/03/12 22:26:45;;;;;;;106.95;53.02;;;;;;;-0.10;46.15;101810.97;3439134;79;20953;-66
2022/03/12 22:31:37;;;;;;;98.85;53.73;;;;;;;-0.26;46.59;101797.77;3435215;79;20962;-67